Time;durP1;ratioP1;P1;durP2;ratioP2;P2;SDS_P1;SDS_P2;PMS_P1;PMS_P2;Temp;Humidity;BMP_temperature;BMP_pressure;BME280_temperature;BME280_humidity;BME280_pressure;Samples;Min_cycle;Max_cycle;Signal;HPM_P1;HPM_P2
2023/05/16 00:00:08;;;;;;;13.52;2.50;;;;;;;;;;5039022;28;20207;-71
2023/05/16 00:02:35;;;;;;;12.65;2.15;;;;;;;;;;5011333;28;20194;-68
2023/05/16 00:05:01;;;;;;;16.08;2.45;;;;;;;;;;5019061;28;20189;-69
2023/05/16 00:07:26;;;;;;;16.83;2.15;;;;;;;;;;5044204;28;20214;-69
2023/05/16 00:09:51;;;;;;;16.45;2.30;;;;;;;;;;5026683;28;20595;-68
2023/05/16 00:12:18;;;;;;;11.90;2.50;;;;;;;;;;5039897;28;20216;-72
2023/05/16 00:14:44;;;;;;;15.63;2.50;;;;;;;;;;5039244;28;20189;-66
2023/05/16 00:17:10;;;;;;;14.85;2.60;;;;;;;;;;5027424;28;20610;-69
2023/05/16 00:19:38;;;;;;;16.92;2.92;;;;;;;;;;5037631;28;20294;-68
2023/05/16 00:22:04;;;;;;;16.88;2.65;;;;;;;;;;5029794;28;20243;-68
2023/05/16 00:24:29;;;;;;;16.45;2.95;;;;;;;;;;5027656;28;20190;-70
2023/05/16 00:26:55;;;;;;;13.30;2.88;;;;;;;;;;5026314;28;20200;-70
2023/05/16 00:29:23;;;;;;;15.65;2.67;;;;;;;;;;5024604;28;20622;-71
2023/05/16 00:31:48;;;;;;;16.55;3.05;;;;;;;;;;5026325;28;20189;-69
2023/05/16 00:34:14;;;;;;;16.50;2.60;;;;;;;;;;5020899;28;20569;-69
2023/05/16 00:36:39;;;;;;;15.88;2.35;;;;;;;;;;5028050;28;20225;-70
2023/05/16 00:39:05;;;;;;;20.05;3.03;;;;;;;;;;5032235;28;20236;-69
2023/05/16 00:41:30;;;;;;;18.42;2.97;;;;;;;;;;5025661;28;20189;-68
2023/05/16 00:43:56;;;;;;;13.88;2.95;;;;;;;;;;5022075;28;20560;-69
2023/05/16 00:46:21;;;;;;;22.63;2.95;;;;;;;;;;5027358;28;20194;-69
2023/05/16 00:48:47;;;;;;;17.88;2.47;;;;;;;;;;5036644;28;20502;-70
2023/05/16 00:51:12;;;;;;;22.27;2.80;;;;;;;;;;5024279;28;20198;-70
2023/05/16 00:53:38;;;;;;;20.55;2.33;;;;;;;;;;5024902;28;20776;-69
2023/05/16 00:56:05;;;;;;;21.48;3.38;;;;;;;;;;5025147;28;20209;-67
2023/05/16 00:58:32;;;;;;;12.95;3.28;;;;;;;;;;5020028;28;20224;-68
2023/05/16 01:00:58;;;;;;;14.13;2.40;;;;;;;;;;5034941;28;20206;-70
2023/05/16 01:03:24;;;;;;;21.48;3.03;;;;;;;;;;5024573;28;20271;-70
2023/05/16 01:05:50;;;;;;;21.17;2.83;;;;;;;;;;5026263;28;20182;-68
2023/05/16 01:08:15;;;;;;;17.48;3.17;;;;;;;;;;5025593;28;20303;-69
2023/05/16 01:10:54;;;;;;;25.17;2.85;;;;;;;;;;5026323;28;20547;-69
2023/05/16 01:13:31;;;;;;;21.27;2.83;;;;;;;;;;5031664;28;20276;-69
2023/05/16 01:16:21;;;;;;;20.60;3.05;;;;;;;;;;5038626;28;20219;-69
2023/05/16 01:18:56;;;;;;;15.88;2.47;;;;;;;;;;5039905;28;20194;-68
2023/05/16 01:21:50;;;;;;;15.23;2.90;;;;;;;;;;5030636;28;20653;-68
2023/05/16 01:24:26;;;;;;;15.65;2.97;;;;;;;;;;5050436;28;20206;-69
2023/05/16 01:26:52;;;;;;;12.85;2.13;;;;;;;;;;5040073;28;20193;-70
2023/05/16 01:29:18;;;;;;;20.35;2.70;;;;;;;;;;5029322;28;20517;-68
2023/05/16 01:31:43;;;;;;;14.02;2.45;;;;;;;;;;5037730;28;20231;-69
2023/05/16 01:34:09;;;;;;;19.80;3.47;;;;;;;;;;5034238;28;20547;-69
2023/05/16 01:36:48;;;;;;;16.48;2.58;;;;;;;;;;5015276;28;20186;-68
2023/05/16 01:39:21;;;;;;;17.23;2.72;;;;;;;;;;5031455;28;20697;-69
2023/05/16 01:42:07;;;;;;;17.38;2.97;;;;;;;;;;5018969;28;20192;-69
2023/05/16 01:45:11;;;;;;;14.05;2.78;;;;;;;;;;5027032;28;20201;-67
2023/05/16 01:47:40;;;;;;;15.88;2.65;;;;;;;;;;5029541;28;20293;-67
2023/05/16 01:50:21;;;;;;;15.25;2.63;;;;;;;;;;5028175;28;20284;-66
2023/05/16 01:52:52;;;;;;;16.25;2.92;;;;;;;;;;5029518;28;20186;-68
2023/05/16 01:55:29;;;;;;;19.50;2.55;;;;;;;;;;5034426;28;20186;-67
2023/05/16 01:57:55;;;;;;;27.77;2.78;;;;;;;;;;5040732;28;20213;-68
2023/05/16 02:00:20;;;;;;;17.25;2.95;;;;;;;;;;5028583;28;20218;-67
2023/05/16 02:02:46;;;;;;;19.60;2.95;;;;;;;;;;5031778;28;20192;-69
2023/05/16 02:05:11;;;;;;;24.10;2.92;;;;;;;;;;5027915;28;20557;-67
2023/05/16 02:07:37;;;;;;;18.08;2.92;;;;;;;;;;5024282;28;20194;-67
2023/05/16 02:10:03;;;;;;;17.75;2.50;;;;;;;;;;5022109;28;20207;-67
2023/05/16 02:12:29;;;;;;;12.88;2.15;;;;;;;;;;5029281;28;20201;-70
2023/05/16 02:14:54;;;;;;;17.55;2.33;;;;;;;;;;5026703;28;20269;-68
2023/05/16 02:17:20;;;;;;;13.45;2.20;;;;;;;;;;5026999;28;20205;-68
2023/05/16 02:19:45;;;;;;;15.23;2.58;;;;;;;;;;5025967;28;20206;-67
2023/05/16 02:22:10;;;;;;;17.60;2.45;;;;;;;;;;5024418;28;20190;-69
2023/05/16 02:24:36;;;;;;;18.40;2.67;;;;;;;;;;5030038;28;20650;-67
2023/05/16 02:27:01;;;;;;;17.08;2.22;;;;;;;;;;5013625;28;20245;-69
2023/05/16 02:29:26;;;;;;;16.70;1.92;;;;;;;;;;5021552;28;20318;-68
2023/05/16 02:31:52;;;;;;;16.70;2.10;;;;;;;;;;5024465;28;20251;-70
2023/05/16 02:34:17;;;;;;;11.73;2.30;;;;;;;;;;5021798;28;20199;-69
2023/05/16 02:36:42;;;;;;;22.52;2.40;;;;;;;;;;5021452;28;20320;-69
2023/05/16 02:39:09;;;;;;;14.32;2.58;;;;;;;;;;5026738;28;20227;-68
2023/05/16 02:41:34;;;;;;;15.98;3.13;;;;;;;;;;5012161;28;20609;-69
2023/05/16 02:43:59;;;;;;;13.50;2.47;;;;;;;;;;5019690;28;20189;-68
2023/05/16 02:46:33;;;;;;;15.80;2.38;;;;;;;;;;5026741;28;20189;-68
2023/05/16 02:48:59;;;;;;;11.65;1.98;;;;;;;;;;5037211;28;20659;-68
2023/05/16 02:51:26;;;;;;;16.48;2.40;;;;;;;;;;5028630;28;20179;-68
2023/05/16 02:53:53;;;;;;;18.63;2.40;;;;;;;;;;5021846;28;20624;-69
2023/05/16 02:56:20;;;;;;;16.70;2.17;;;;;;;;;;5014935;28;20420;-68
2023/05/16 02:58:47;;;;;;;14.77;3.20;;;;;;;;;;5019324;28;20296;-68
2023/05/16 03:01:14;;;;;;;12.82;1.80;;;;;;;;;;5022209;28;20549;-69
2023/05/16 03:03:39;;;;;;;17.02;2.30;;;;;;;;;;5031536;28;20646;-69
2023/05/16 03:06:05;;;;;;;13.15;1.90;;;;;;;;;;5025431;28;20283;-69
2023/05/16 03:08:30;;;;;;;21.40;2.22;;;;;;;;;;5017542;28;20321;-69
2023/05/16 03:10:56;;;;;;;15.45;2.22;;;;;;;;;;5027577;28;20188;-68
2023/05/16 03:13:21;;;;;;;23.42;3.00;;;;;;;;;;5024554;28;20186;-69
2023/05/16 03:15:47;;;;;;;10.50;1.90;;;;;;;;;;5029297;28;20182;-68
2023/05/16 03:18:12;;;;;;;15.18;2.15;;;;;;;;;;5025271;28;20235;-67
2023/05/16 03:20:38;;;;;;;11.50;2.10;;;;;;;;;;5017101;28;20205;-68
2023/05/16 03:23:06;;;;;;;18.60;2.50;;;;;;;;;;5029584;28;20496;-70
2023/05/16 03:25:32;;;;;;;17.15;2.40;;;;;;;;;;5032727;28;20731;-69
2023/05/16 03:27:57;;;;;;;22.38;2.17;;;;;;;;;;5026518;28;20182;-68
2023/05/16 03:30:23;;;;;;;17.50;2.70;;;;;;;;;;5037444;28;20193;-68
2023/05/16 03:32:49;;;;;;;13.20;2.78;;;;;;;;;;5028438;28;20242;-69
2023/05/16 03:35:14;;;;;;;19.65;2.90;;;;;;;;;;5026219;28;20571;-68
2023/05/16 03:37:39;;;;;;;20.27;3.35;;;;;;;;;;5027865;28;20304;-68
2023/05/16 03:40:06;;;;;;;11.25;2.75;;;;;;;;;;5029892;28;20213;-69
2023/05/16 03:42:31;;;;;;;19.48;2.58;;;;;;;;;;5028649;28;20690;-68
2023/05/16 03:44:57;;;;;;;13.98;3.00;;;;;;;;;;5027500;28;20273;-68
2023/05/16 03:47:22;;;;;;;16.33;3.53;;;;;;;;;;5038286;28;20185;-68
2023/05/16 03:49:48;;;;;;;22.92;3.47;;;;;;;;;;5042014;28;20259;-69
2023/05/16 03:52:13;;;;;;;22.38;2.90;;;;;;;;;;5039741;28;20671;-69
2023/05/16 03:54:38;;;;;;;18.80;2.97;;;;;;;;;;5028517;28;20194;-68
2023/05/16 03:57:05;;;;;;;21.45;2.72;;;;;;;;;;5041166;28;20189;-67
2023/05/16 03:59:30;;;;;;;16.38;3.08;;;;;;;;;;5031720;28;20519;-68
2023/05/16 04:01:55;;;;;;;22.48;3.17;;;;;;;;;;5037251;28;20228;-68
2023/05/16 04:04:21;;;;;;;23.20;5.38;;;;;;;;;;5041466;28;20298;-68
2023/05/16 04:06:46;;;;;;;19.10;3.05;;;;;;;;;;5027421;28;20238;-67
2023/05/16 04:09:12;;;;;;;14.48;3.33;;;;;;;;;;5027516;28;20593;-68
2023/05/16 04:11:37;;;;;;;14.43;2.75;;;;;;;;;;5017884;28;20186;-67
2023/05/16 04:14:03;;;;;;;14.00;2.88;;;;;;;;;;5015181;28;20654;-67
2023/05/16 04:16:28;;;;;;;21.80;3.42;;;;;;;;;;5024882;28;20190;-67
2023/05/16 04:18:55;;;;;;;16.15;3.30;;;;;;;;;;5028440;28;20317;-68
2023/05/16 04:21:21;;;;;;;19.55;3.88;;;;;;;;;;5027493;28;20197;-67
2023/05/16 04:23:46;;;;;;;18.55;2.83;;;;;;;;;;5039778;28;20193;-66
2023/05/16 04:26:13;;;;;;;12.70;2.70;;;;;;;;;;5033416;28;20193;-67
2023/05/16 04:28:38;;;;;;;11.55;2.50;;;;;;;;;;5032120;28;20324;-67
2023/05/16 04:31:04;;;;;;;20.73;3.30;;;;;;;;;;5023755;28;20336;-67
2023/05/16 04:33:30;;;;;;;11.90;2.72;;;;;;;;;;5020300;28;20576;-68
2023/05/16 04:35:56;;;;;;;13.87;2.83;;;;;;;;;;5008908;28;20195;-67
2023/05/16 04:38:22;;;;;;;13.02;2.42;;;;;;;;;;5012767;28;20701;-66
2023/05/16 04:40:49;;;;;;;12.25;2.72;;;;;;;;;;5026439;28;20225;-67
2023/05/16 04:43:15;;;;;;;17.83;3.03;;;;;;;;;;5031129;28;20209;-66
2023/05/16 04:45:41;;;;;;;24.05;3.35;;;;;;;;;;5031666;28;20696;-67
2023/05/16 04:48:07;;;;;;;19.13;2.78;;;;;;;;;;5038109;28;20182;-66
2023/05/16 04:50:32;;;;;;;17.50;2.90;;;;;;;;;;5033686;28;20220;-67
2023/05/16 04:52:57;;;;;;;20.77;2.92;;;;;;;;;;5025423;28;20667;-67
2023/05/16 04:55:23;;;;;;;14.70;3.20;;;;;;;;;;5027922;28;20212;-67
2023/05/16 04:57:48;;;;;;;22.42;4.03;;;;;;;;;;5026425;28;20510;-67
2023/05/16 05:00:15;;;;;;;12.25;2.35;;;;;;;;;;5026102;28;20222;-67
2023/05/16 05:02:40;;;;;;;15.43;2.80;;;;;;;;;;5031103;28;20178;-68
2023/05/16 05:05:07;;;;;;;12.20;2.33;;;;;;;;;;5024997;28;20243;-67
2023/05/16 05:07:32;;;;;;;9.68;2.05;;;;;;;;;;5012704;28;20238;-67
2023/05/16 05:09:58;;;;;;;10.88;2.30;;;;;;;;;;5026802;28;20577;-68
2023/05/16 05:12:24;;;;;;;18.83;2.57;;;;;;;;;;5024194;28;20646;-68
2023/05/16 05:14:49;;;;;;;12.60;2.00;;;;;;;;;;5023299;28;20705;-68
2023/05/16 05:17:16;;;;;;;17.52;2.40;;;;;;;;;;5018357;28;20191;-68
2023/05/16 05:19:41;;;;;;;19.88;2.40;;;;;;;;;;5010413;28;20408;-68
2023/05/16 05:22:06;;;;;;;11.93;2.47;;;;;;;;;;5027368;28;20531;-67
2023/05/16 05:24:32;;;;;;;17.98;2.45;;;;;;;;;;5029923;28;20186;-68
2023/05/16 05:26:57;;;;;;;16.27;2.33;;;;;;;;;;5024029;28;20212;-67
2023/05/16 05:29:22;;;;;;;11.48;1.80;;;;;;;;;;5020314;28;20531;-67
2023/05/16 05:31:48;;;;;;;15.07;3.30;;;;;;;;;;5021942;28;20570;-68
2023/05/16 05:34:13;;;;;;;11.90;1.98;;;;;;;;;;5023531;28;20194;-68
2023/05/16 05:36:39;;;;;;;11.10;1.77;;;;;;;;;;5025864;28;20189;-68
2023/05/16 05:39:04;;;;;;;22.55;2.90;;;;;;;;;;5023994;28;20227;-68
2023/05/16 05:41:29;;;;;;;17.92;2.05;;;;;;;;;;5022764;28;20298;-67
2023/05/16 05:43:55;;;;;;;9.88;1.73;;;;;;;;;;5026739;28;20312;-68
2023/05/16 05:46:20;;;;;;;7.45;1.92;;;;;;;;;;5019194;28;20228;-69
2023/05/16 05:48:46;;;;;;;11.70;1.73;;;;;;;;;;5033014;28;20217;-69
2023/05/16 05:51:13;;;;;;;14.88;1.90;;;;;;;;;;5025791;28;20217;-68
2023/05/16 05:53:39;;;;;;;11.50;2.15;;;;;;;;;;5022256;28;20606;-67
2023/05/16 05:56:04;;;;;;;9.23;1.92;;;;;;;;;;5032410;28;20212;-69
2023/05/16 05:58:30;;;;;;;13.50;2.22;;;;;;;;;;5027825;28;20185;-68
2023/05/16 06:00:55;;;;;;;12.40;1.55;;;;;;;;;;5027132;28;20221;-68
2023/05/16 06:03:20;;;;;;;17.17;2.17;;;;;;;;;;5029812;28;20269;-69
2023/05/16 06:05:46;;;;;;;12.13;1.70;;;;;;;;;;5026236;28;20496;-67
2023/05/16 06:08:12;;;;;;;16.92;2.03;;;;;;;;;;5025308;28;20186;-68
2023/05/16 06:10:37;;;;;;;14.50;2.15;;;;;;;;;;5017459;28;20289;-68
2023/05/16 06:13:02;;;;;;;14.00;1.85;;;;;;;;;;5024293;28;20515;-69
2023/05/16 06:15:28;;;;;;;13.02;1.77;;;;;;;;;;5016360;28;20603;-69
2023/05/16 06:17:53;;;;;;;15.40;1.92;;;;;;;;;;5030521;28;20209;-69
2023/05/16 06:20:19;;;;;;;14.73;1.75;;;;;;;;;;5027302;28;20631;-70
2023/05/16 06:22:44;;;;;;;8.73;1.88;;;;;;;;;;5030643;28;20186;-68
2023/05/16 06:25:10;;;;;;;13.77;1.55;;;;;;;;;;5039408;28;20501;-70
2023/05/16 06:27:35;;;;;;;12.43;1.70;;;;;;;;;;5018212;28;20190;-69
2023/05/16 06:30:00;;;;;;;15.82;1.80;;;;;;;;;;5024508;28;20766;-66
2023/05/16 06:32:26;;;;;;;16.50;1.73;;;;;;;;;;5020627;28;20208;-69
2023/05/16 06:34:51;;;;;;;12.13;1.80;;;;;;;;;;5025901;28;20190;-69
2023/05/16 06:37:17;;;;;;;10.55;1.50;;;;;;;;;;5022035;28;20194;-69
2023/05/16 06:39:43;;;;;;;7.25;1.35;;;;;;;;;;5024383;28;20645;-68
2023/05/16 06:42:09;;;;;;;11.88;2.00;;;;;;;;;;5010502;28;20510;-67
2023/05/16 06:44:35;;;;;;;14.50;1.58;;;;;;;;;;5016421;28;20255;-67
2023/05/16 06:47:00;;;;;;;11.70;1.52;;;;;;;;;;5023612;28;20269;-69
2023/05/16 06:49:25;;;;;;;14.63;1.75;;;;;;;;;;5021551;28;20670;-71
2023/05/16 06:51:51;;;;;;;11.48;1.73;;;;;;;;;;5021697;28;20658;-67
2023/05/16 06:54:16;;;;;;;6.38;1.40;;;;;;;;;;5022134;28;20224;-68
2023/05/16 06:56:42;;;;;;;11.52;1.80;;;;;;;;;;5017179;28;20333;-71
2023/05/16 06:59:07;;;;;;;14.68;1.35;;;;;;;;;;5012120;28;20193;-71
2023/05/16 07:01:32;;;;;;;14.07;2.38;;;;;;;;;;5012662;28;20689;-69
2023/05/16 07:03:58;;;;;;;13.38;1.67;;;;;;;;;;5014848;28;20235;-68
2023/05/16 07:06:23;;;;;;;8.98;1.55;;;;;;;;;;5030324;28;20611;-67
2023/05/16 07:08:49;;;;;;;9.60;1.85;;;;;;;;;;5014791;28;20251;-67
2023/05/16 07:11:14;;;;;;;9.65;1.40;;;;;;;;;;5024694;28;20198;-67
2023/05/16 07:13:40;;;;;;;8.57;1.77;;;;;;;;;;5030721;28;20251;-71
2023/05/16 07:16:06;;;;;;;13.65;1.67;;;;;;;;;;5018800;28;20702;-67
2023/05/16 07:18:31;;;;;;;10.95;1.23;;;;;;;;;;5024639;28;20638;-68
2023/05/16 07:20:57;;;;;;;6.03;1.15;;;;;;;;;;5020207;28;20260;-71
2023/05/16 07:23:22;;;;;;;8.52;1.83;;;;;;;;;;5031795;28;20648;-71
2023/05/16 07:25:48;;;;;;;10.85;1.35;;;;;;;;;;5027292;28;20194;-67
2023/05/16 07:28:14;;;;;;;9.98;1.08;;;;;;;;;;5027320;28;20194;-68
2023/05/16 07:30:39;;;;;;;10.38;1.25;;;;;;;;;;5026287;28;20634;-68
2023/05/16 07:33:04;;;;;;;9.65;1.27;;;;;;;;;;5038119;28;20222;-68
2023/05/16 07:35:30;;;;;;;8.98;1.30;;;;;;;;;;5023638;28;20286;-67
2023/05/16 07:37:55;;;;;;;6.75;1.00;;;;;;;;;;5021210;28;20349;-69
2023/05/16 07:40:24;;;;;;;9.95;1.40;;;;;;;;;;5019721;28;20191;-67
2023/05/16 07:42:50;;;;;;;8.52;1.27;;;;;;;;;;5022086;28;20269;-67
2023/05/16 07:45:15;;;;;;;8.20;0.95;;;;;;;;;;5028675;28;20660;-69
2023/05/16 07:47:41;;;;;;;8.23;1.00;;;;;;;;;;5013703;28;20199;-66
2023/05/16 07:50:07;;;;;;;9.63;1.83;;;;;;;;;;5015075;28;20221;-66
2023/05/16 07:52:32;;;;;;;6.72;1.38;;;;;;;;;;5031341;28;20190;-67
2023/05/16 07:54:57;;;;;;;6.05;1.10;;;;;;;;;;5031243;28;20267;-68
2023/05/16 07:57:23;;;;;;;10.40;1.23;;;;;;;;;;5039261;28;20576;-69
2023/05/16 07:59:50;;;;;;;7.20;1.73;;;;;;;;;;5008901;28;20218;-69
2023/05/16 08:02:16;;;;;;;8.75;1.23;;;;;;;;;;5017097;28;20404;-70
2023/05/16 08:04:41;;;;;;;4.13;0.70;;;;;;;;;;5041546;28;20242;-69
2023/05/16 08:07:07;;;;;;;7.95;1.33;;;;;;;;;;5046409;28;20189;-67
2023/05/16 08:09:32;;;;;;;5.85;0.85;;;;;;;;;;5016131;28;20646;-68
2023/05/16 08:12:02;;;;;;;10.05;1.23;;;;;;;;;;5020010;28;20531;-67
2023/05/16 08:14:28;;;;;;;6.93;1.23;;;;;;;;;;5016178;28;20896;-67
2023/05/16 08:16:53;;;;;;;8.10;1.55;;;;;;;;;;5017300;28;20206;-67
2023/05/16 08:19:18;;;;;;;6.97;1.23;;;;;;;;;;5014633;28;20515;-68
2023/05/16 08:21:44;;;;;;;8.77;1.17;;;;;;;;;;5018609;28;20193;-66
2023/05/16 08:24:10;;;;;;;8.55;1.40;;;;;;;;;;5022591;28;20193;-68
2023/05/16 08:26:36;;;;;;;5.93;1.20;;;;;;;;;;5033742;28;20189;-69
2023/05/16 08:29:01;;;;;;;5.00;0.90;;;;;;;;;;5020304;28;20241;-68
2023/05/16 08:31:27;;;;;;;7.30;1.40;;;;;;;;;;5034379;28;20670;-67
2023/05/16 08:33:52;;;;;;;7.15;1.35;;;;;;;;;;5010982;28;20252;-67
2023/05/16 08:36:18;;;;;;;7.03;1.42;;;;;;;;;;5022715;28;20265;-68
2023/05/16 08:38:44;;;;;;;6.53;0.90;;;;;;;;;;5019275;28;20235;-68
2023/05/16 08:41:10;;;;;;;4.00;1.15;;;;;;;;;;5024586;28;20241;-67
2023/05/16 08:43:35;;;;;;;6.50;1.13;;;;;;;;;;5020581;28;20631;-67
2023/05/16 08:46:01;;;;;;;5.40;0.90;;;;;;;;;;5010128;28;20190;-68
2023/05/16 08:48:27;;;;;;;8.10;1.27;;;;;;;;;;5026271;28;20569;-67
2023/05/16 08:50:52;;;;;;;7.53;0.88;;;;;;;;;;5037548;28;20208;-67
2023/05/16 08:53:23;;;;;;;6.95;1.23;;;;;;;;;;5016172;28;20666;-68
2023/05/16 08:55:50;;;;;;;7.47;1.40;;;;;;;;;;5040748;28;20186;-69
2023/05/16 08:58:16;;;;;;;4.38;1.00;;;;;;;;;;5026451;28;20198;-69
2023/05/16 09:00:42;;;;;;;6.80;0.80;;;;;;;;;;5032758;28;20206;-67
2023/05/16 09:03:08;;;;;;;6.68;1.42;;;;;;;;;;5024261;28;20201;-68
2023/05/16 09:05:34;;;;;;;6.15;1.23;;;;;;;;;;5018565;28;20187;-69
2023/05/16 09:07:59;;;;;;;5.65;0.80;;;;;;;;;;5020012;28;20259;-70
2023/05/16 09:10:26;;;;;;;4.03;0.68;;;;;;;;;;5017244;28;20694;-66
2023/05/16 09:12:51;;;;;;;5.30;1.00;;;;;;;;;;5018845;28;20186;-70
2023/05/16 09:15:19;;;;;;;4.60;0.80;;;;;;;;;;5016632;28;20563;-69
2023/05/16 09:17:45;;;;;;;8.50;1.00;;;;;;;;;;5013117;28;20205;-66
2023/05/16 09:20:16;;;;;;;4.70;0.95;;;;;;;;;;5025718;28;20186;-65
2023/05/16 09:22:58;;;;;;;3.17;0.90;;;;;;;;;;5027736;28;20202;-66
2023/05/16 09:25:26;;;;;;;3.72;0.82;;;;;;;;;;5036095;28;20190;-67
2023/05/16 09:27:55;;;;;;;2.65;0.50;;;;;;;;;;5030053;28;20708;-66
2023/05/16 09:30:24;;;;;;;4.65;1.15;;;;;;;;;;5037242;28;20261;-66
2023/05/16 09:32:51;;;;;;;6.35;0.98;;;;;;;;;;5028538;28;20194;-68
2023/05/16 09:35:18;;;;;;;5.32;1.10;;;;;;;;;;5037719;28;20217;-67
2023/05/16 09:37:48;;;;;;;9.05;0.90;;;;;;;;;;5027360;28;20646;-66
2023/05/16 09:40:14;;;;;;;5.50;0.93;;;;;;;;;;5036767;28;20185;-66
2023/05/16 09:42:41;;;;;;;7.53;1.25;;;;;;;;;;5035894;28;20301;-67
2023/05/16 09:45:11;;;;;;;2.83;0.82;;;;;;;;;;5043306;28;20509;-66
2023/05/16 09:47:44;;;;;;;5.20;1.05;;;;;;;;;;5030453;28;20205;-67
2023/05/16 09:50:10;;;;;;;6.15;1.17;;;;;;;;;;5047040;28;20407;-66
2023/05/16 09:52:36;;;;;;;5.72;1.05;;;;;;;;;;5031097;28;20277;-66
2023/05/16 09:55:06;;;;;;;7.60;1.02;;;;;;;;;;5045298;28;20251;-65
2023/05/16 09:57:31;;;;;;;8.23;1.90;;;;;;;;;;5044274;28;20625;-67
2023/05/16 09:59:58;;;;;;;5.10;1.15;;;;;;;;;;5040080;28;20229;-66
2023/05/16 10:02:24;;;;;;;5.97;0.88;;;;;;;;;;5034532;28;20228;-65
2023/05/16 10:04:50;;;;;;;10.65;1.52;;;;;;;;;;5033392;28;20205;-67
2023/05/16 10:07:15;;;;;;;6.63;0.90;;;;;;;;;;5034207;28;20517;-66
2023/05/16 10:09:42;;;;;;;4.57;0.85;;;;;;;;;;5048774;28;20673;-69
2023/05/16 10:12:11;;;;;;;8.10;1.00;;;;;;;;;;5039619;28;20186;-67
2023/05/16 10:14:39;;;;;;;5.10;1.10;;;;;;;;;;5044446;28;20205;-66
2023/05/16 10:17:13;;;;;;;3.05;0.60;;;;;;;;;;5030730;28;20558;-68
2023/05/16 10:19:39;;;;;;;3.80;0.60;;;;;;;;;;5044496;28;20689;-67
2023/05/16 10:22:06;;;;;;;3.90;0.77;;;;;;;;;;5024107;28;20190;-68
2023/05/16 10:24:34;;;;;;;2.63;0.60;;;;;;;;;;5036157;28;20182;-68
2023/05/16 10:27:02;;;;;;;3.38;0.70;;;;;;;;;;5039488;28;20579;-68
2023/05/16 10:29:27;;;;;;;3.47;0.40;;;;;;;;;;5019498;28;20333;-68
2023/05/16 10:31:53;;;;;;;4.53;0.80;;;;;;;;;;5026873;28;20302;-68
2023/05/16 10:34:19;;;;;;;5.53;0.88;;;;;;;;;;5016312;28;20662;-70
2023/05/16 10:36:45;;;;;;;3.83;0.73;;;;;;;;;;5033102;28;20803;-66
2023/05/16 10:39:11;;;;;;;6.55;0.90;;;;;;;;;;5027253;28;20222;-68
2023/05/16 10:41:37;;;;;;;4.63;0.82;;;;;;;;;;5024995;28;20191;-68
2023/05/16 10:44:03;;;;;;;4.15;0.80;;;;;;;;;;5022327;28;20256;-68
2023/05/16 10:46:30;;;;;;;3.20;0.85;;;;;;;;;;5017384;28;20183;-70
2023/05/16 10:48:56;;;;;;;2.90;0.75;;;;;;;;;;5025668;28;20241;-68
2023/05/16 10:51:21;;;;;;;7.15;1.13;;;;;;;;;;5013664;28;20217;-71
2023/05/16 10:53:47;;;;;;;5.47;0.90;;;;;;;;;;5013078;28;20654;-67
2023/05/16 10:56:12;;;;;;;7.35;0.80;;;;;;;;;;5019089;28;20727;-67
2023/05/16 10:58:37;;;;;;;8.98;0.90;;;;;;;;;;5020085;28;20274;-67
2023/05/16 11:01:15;;;;;;;3.95;0.90;;;;;;;;;;5022704;28;20221;-68
2023/05/16 11:03:55;;;;;;;1.90;0.80;;;;;;;;;;5021090;28;20188;-66
2023/05/16 11:06:22;;;;;;;2.78;0.70;;;;;;;;;;5040110;28;20190;-69
2023/05/16 11:09:04;;;;;;;5.07;1.08;;;;;;;;;;5031965;28;20191;-66
2023/05/16 11:11:52;;;;;;;9.77;1.27;;;;;;;;;;5016178;28;20256;-69
2023/05/16 11:14:27;;;;;;;3.60;1.00;;;;;;;;;;5010991;28;20268;-68
2023/05/16 11:17:14;;;;;;;6.47;0.90;;;;;;;;;;5017753;28;20189;-67
2023/05/16 11:19:55;;;;;;;6.07;1.00;;;;;;;;;;5019156;28;20216;-68
2023/05/16 11:22:31;;;;;;;6.95;1.13;;;;;;;;;;5033831;28;20272;-69
2023/05/16 11:25:05;;;;;;;4.88;0.77;;;;;;;;;;5017416;28;20190;-70
2023/05/16 11:27:31;;;;;;;7.18;0.98;;;;;;;;;;5027376;28;20542;-70
2023/05/16 11:30:05;;;;;;;7.97;1.35;;;;;;;;;;5024698;28;20245;-70
2023/05/16 11:32:39;;;;;;;9.20;1.35;;;;;;;;;;5020074;28;20213;-68
2023/05/16 11:35:07;;;;;;;6.95;1.45;;;;;;;;;;5018924;28;20205;-68
2023/05/16 11:37:35;;;;;;;5.40;1.20;;;;;;;;;;5032353;28;20222;-69
2023/05/16 11:40:02;;;;;;;5.50;1.25;;;;;;;;;;5024411;28;20182;-69
2023/05/16 11:42:30;;;;;;;7.13;1.08;;;;;;;;;;5028775;28;20182;-70
2023/05/16 11:45:09;;;;;;;5.38;1.13;;;;;;;;;;5028490;28;20185;-70
2023/05/16 11:47:37;;;;;;;5.40;1.30;;;;;;;;;;5030452;28;20278;-69
2023/05/16 11:50:05;;;;;;;8.70;1.30;;;;;;;;;;5014205;28;20210;-69
2023/05/16 11:52:31;;;;;;;5.20;1.20;;;;;;;;;;5027780;28;20269;-68
2023/05/16 11:55:00;;;;;;;4.75;1.42;;;;;;;;;;5032722;28;20556;-67
2023/05/16 11:57:26;;;;;;;4.03;1.25;;;;;;;;;;5032809;28;20188;-67
2023/05/16 11:59:52;;;;;;;4.85;1.23;;;;;;;;;;5029734;28;20224;-68
2023/05/16 12:02:17;;;;;;;3.90;1.00;;;;;;;;;;5027389;28;20217;-70
2023/05/16 12:04:46;;;;;;;3.67;1.13;;;;;;;;;;5021079;28;20559;-71
2023/05/16 12:07:11;;;;;;;5.72;1.42;;;;;;;;;;5038980;28;20292;-69
2023/05/16 12:09:37;;;;;;;6.47;1.23;;;;;;;;;;5026514;28;20367;-68
2023/05/16 12:12:05;;;;;;;3.50;1.00;;;;;;;;;;5027087;28;20590;-70
2023/05/16 12:14:31;;;;;;;3.10;1.10;;;;;;;;;;5014644;28;20207;-71
2023/05/16 12:16:57;;;;;;;5.25;1.10;;;;;;;;;;5015391;28;20186;-71
2023/05/16 12:19:22;;;;;;;3.72;1.30;;;;;;;;;;5014973;28;20529;-66
2023/05/16 12:21:51;;;;;;;4.78;1.30;;;;;;;;;;5027345;28;20178;-68
2023/05/16 12:24:17;;;;;;;6.35;1.02;;;;;;;;;;5029201;28;20662;-68
2023/05/16 12:26:43;;;;;;;7.22;1.20;;;;;;;;;;5044173;28;20259;-65
2023/05/16 12:29:10;;;;;;;5.10;1.30;;;;;;;;;;5015216;28;20238;-70
2023/05/16 12:31:38;;;;;;;8.77;1.35;;;;;;;;;;5013943;28;20264;-70
2023/05/16 12:34:03;;;;;;;4.40;1.30;;;;;;;;;;5026503;28;20205;-67
2023/05/16 12:36:36;;;;;;;4.32;1.30;;;;;;;;;;5027802;28;20198;-69
2023/05/16 12:39:02;;;;;;;7.07;1.38;;;;;;;;;;5039503;28;20275;-71
2023/05/16 12:41:30;;;;;;;5.82;1.38;;;;;;;;;;5024806;28;20202;-68
2023/05/16 12:44:18;;;;;;;6.05;1.63;;;;;;;;;;5029063;28;20198;-69
2023/05/16 12:46:50;;;;;;;6.63;1.50;;;;;;;;;;5029959;28;20182;-68
2023/05/16 12:49:18;;;;;;;5.82;1.40;;;;;;;;;;5017594;28;20220;-71
2023/05/16 12:51:51;;;;;;;6.78;1.40;;;;;;;;;;5025257;28;20649;-68
2023/05/16 12:54:17;;;;;;;5.70;0.90;;;;;;;;;;5027400;28;20268;-68
2023/05/16 12:56:43;;;;;;;7.85;1.13;;;;;;;;;;5029120;28;20281;-68
2023/05/16 12:59:09;;;;;;;2.97;1.17;;;;;;;;;;5025807;28;20637;-67
2023/05/16 13:01:35;;;;;;;5.13;1.10;;;;;;;;;;5024381;28;20203;-67
2023/05/16 13:04:01;;;;;;;2.58;0.60;;;;;;;;;;5029314;28;20187;-66
2023/05/16 13:06:27;;;;;;;4.00;1.27;;;;;;;;;;5035155;28;20235;-66
2023/05/16 13:08:53;;;;;;;3.03;0.70;;;;;;;;;;5030117;28;20198;-68
2023/05/16 13:11:18;;;;;;;3.80;0.90;;;;;;;;;;5023038;28;20425;-67
2023/05/16 13:13:44;;;;;;;3.38;0.85;;;;;;;;;;5025695;28;20200;-68
2023/05/16 13:16:10;;;;;;;4.50;0.90;;;;;;;;;;5028319;28;20198;-69
2023/05/16 13:18:35;;;;;;;3.35;0.90;;;;;;;;;;5023597;28;20442;-67
2023/05/16 13:21:03;;;;;;;3.47;1.00;;;;;;;;;;5031422;28;20522;-69
2023/05/16 13:23:28;;;;;;;3.78;1.05;;;;;;;;;;5023044;28;20209;-68
2023/05/16 13:25:54;;;;;;;4.50;1.20;;;;;;;;;;5026865;28;20190;-69
2023/05/16 13:28:19;;;;;;;3.22;0.95;;;;;;;;;;5018124;28;20217;-71
2023/05/16 13:30:45;;;;;;;2.35;0.93;;;;;;;;;;5012749;28;20254;-68
2023/05/16 13:33:11;;;;;;;2.42;0.85;;;;;;;;;;5030992;28;20638;-70
2023/05/16 13:35:37;;;;;;;3.00;1.08;;;;;;;;;;5036831;28;20193;-67
2023/05/16 13:38:02;;;;;;;2.08;0.90;;;;;;;;;;5022842;28;20221;-70
2023/05/16 13:40:28;;;;;;;2.65;0.80;;;;;;;;;;5016361;28;20190;-70
2023/05/16 13:42:54;;;;;;;5.28;1.23;;;;;;;;;;5020101;28;20194;-67
2023/05/16 13:45:19;;;;;;;3.42;1.33;;;;;;;;;;5033708;28;20280;-69
2023/05/16 13:47:44;;;;;;;3.67;1.38;;;;;;;;;;5018086;28;20692;-73
2023/05/16 13:50:11;;;;;;;4.45;1.63;;;;;;;;;;5019977;28;20324;-68
2023/05/16 13:52:37;;;;;;;2.95;1.20;;;;;;;;;;5025396;28;20197;-69
2023/05/16 13:55:03;;;;;;;3.38;1.23;;;;;;;;;;5026877;28;20241;-69
2023/05/16 13:57:28;;;;;;;5.85;2.05;;;;;;;;;;5026410;28;20233;-69
2023/05/16 13:59:53;;;;;;;4.53;1.60;;;;;;;;;;5021410;28;20649;-68
2023/05/16 14:02:19;;;;;;;4.47;1.45;;;;;;;;;;5020837;28;20369;-68
2023/05/16 14:04:45;;;;;;;6.28;1.90;;;;;;;;;;5025844;28;20183;-67
2023/05/16 14:07:10;;;;;;;3.55;1.40;;;;;;;;;;5024439;28;20186;-69
2023/05/16 14:09:38;;;;;;;5.90;1.60;;;;;;;;;;5029948;28;20362;-71
2023/05/16 14:12:06;;;;;;;4.90;1.60;;;;;;;;;;5016096;28;20210;-67
2023/05/16 14:14:31;;;;;;;4.53;1.73;;;;;;;;;;5023993;28;20324;-69
2023/05/16 14:16:57;;;;;;;5.93;1.60;;;;;;;;;;5025272;28;20280;-69
2023/05/16 14:19:22;;;;;;;4.72;1.88;;;;;;;;;;5031466;28;20200;-68
2023/05/16 14:21:48;;;;;;;6.20;1.88;;;;;;;;;;5016604;28;20190;-69
2023/05/16 14:24:13;;;;;;;5.30;1.55;;;;;;;;;;5027471;28;20273;-69
2023/05/16 14:26:38;;;;;;;5.32;1.85;;;;;;;;;;5039275;28;20662;-68
2023/05/16 14:29:04;;;;;;;4.78;1.80;;;;;;;;;;5020488;28;20245;-68
2023/05/16 14:31:29;;;;;;;5.57;2.00;;;;;;;;;;5030580;28;20427;-66
2023/05/16 14:33:55;;;;;;;5.93;1.90;;;;;;;;;;5021399;28;20674;-68